createdAt,value
2018-02-07T00:01:48.976Z,98795
2018-02-07T00:03:53.072Z,98792
2018-02-07T00:05:56.844Z,98796
2018-02-07T00:08:06.078Z,98794
2018-02-07T00:10:10.081Z,98794
2018-02-07T00:12:14.274Z,98789
2018-02-07T00:14:18.799Z,98794
2018-02-07T00:16:22.799Z,98794
2018-02-07T00:18:26.996Z,98800
2018-02-07T00:20:31.225Z,98793
2018-02-07T00:22:35.262Z,98792
2018-02-07T00:24:39.341Z,98789
2018-02-07T00:26:43.629Z,98788
2018-02-07T00:28:47.837Z,98781
2018-02-07T00:30:51.864Z,98785
2018-02-07T00:35:22.497Z,98793
2018-02-07T00:37:27.052Z,98789
2018-02-07T00:39:30.989Z,98786
2018-02-07T00:41:35.068Z,98784
2018-02-07T00:43:39.497Z,98785
2018-02-07T00:45:43.589Z,98785
2018-02-07T00:47:47.818Z,98780
2018-02-07T00:49:52.174Z,98783
2018-02-07T00:51:56.057Z,98779
2018-02-07T00:54:00.278Z,98779
2018-02-07T00:56:04.636Z,98780
2018-02-07T00:58:08.429Z,98778
2018-02-07T01:00:14.946Z,98787
2018-02-07T01:02:19.557Z,98785
2018-02-07T01:04:23.405Z,98788
2018-02-07T01:06:27.217Z,98794
2018-02-07T01:08:31.297Z,98794
2018-02-07T01:10:35.586Z,98799
2018-02-07T01:12:39.701Z,98801
2018-02-07T01:14:44.064Z,98801
2018-02-07T01:16:48.145Z,98801
2018-02-07T01:18:52.129Z,98796
2018-02-07T01:20:56.015Z,98797
2018-02-07T01:23:00.235Z,98797
2018-02-07T01:25:04.962Z,98791
2018-02-07T01:27:09.066Z,98793
2018-02-07T01:29:13.046Z,98790
2018-02-07T01:31:17.432Z,98787
2018-02-07T01:33:21.841Z,98781
2018-02-07T01:35:26.025Z,98779
2018-02-07T01:37:31.174Z,98777
2018-02-07T01:39:50.324Z,98783
2018-02-07T01:41:54.121Z,98780
2018-02-07T01:43:58.198Z,98779
2018-02-07T01:46:02.388Z,98783
2018-02-07T01:48:06.724Z,98785
2018-02-07T01:50:11.039Z,98781
2018-02-07T01:52:15.138Z,98792
2018-02-07T01:54:19.294Z,98790
2018-02-07T01:56:23.530Z,98796
2018-02-07T01:58:27.644Z,98789
2018-02-07T02:00:31.724Z,98789
2018-02-07T02:02:36.384Z,98789
2018-02-07T02:04:40.829Z,98779
2018-02-07T02:06:44.676Z,98785
2018-02-07T02:08:48.763Z,98786
2018-02-07T02:10:53.045Z,98784
2018-02-07T02:12:57.177Z,98786
2018-02-07T02:15:01.350Z,98785
2018-02-07T02:17:05.507Z,98787
2018-02-07T02:19:09.561Z,98788
2018-02-07T02:21:21.696Z,98781
2018-02-07T02:23:26.085Z,98786
2018-02-07T02:25:30.258Z,98785
2018-02-07T02:27:34.514Z,98780
2018-02-07T02:29:39.174Z,98777
2018-02-07T02:31:43.453Z,98779
2018-02-07T02:33:47.671Z,98774
2018-02-07T02:36:00.961Z,98775
2018-02-07T02:38:05.309Z,98773
2018-02-07T02:40:09.486Z,98772
2018-02-07T02:42:13.672Z,98769
2018-02-07T02:44:18.178Z,98765
2018-02-07T02:46:22.535Z,98764
2018-02-07T02:48:26.986Z,98772
2018-02-07T02:50:31.310Z,98766
2018-02-07T02:52:36.477Z,98769
2018-02-07T02:54:40.709Z,98772
2018-02-07T02:56:44.873Z,98770
2018-02-07T02:58:49.138Z,98770
2018-02-07T03:00:53.398Z,98769
2018-02-07T03:03:01.229Z,98767
2018-02-07T03:05:05.597Z,98772
2018-02-07T03:07:09.725Z,98772
2018-02-07T03:09:14.069Z,98771
2018-02-07T03:11:18.111Z,98773
2018-02-07T03:13:22.568Z,98775
2018-02-07T03:15:26.493Z,98773
2018-02-07T03:17:30.775Z,98774
2018-02-07T03:19:34.670Z,98773
2018-02-07T03:21:39.108Z,98766
2018-02-07T03:23:43.231Z,98766
2018-02-07T03:25:47.667Z,98765
2018-02-07T03:27:52.644Z,98765
2018-02-07T03:29:56.477Z,98763
2018-02-07T03:32:00.434Z,98764
2018-02-07T03:34:04.970Z,98775
2018-02-07T03:36:09.141Z,98769
2018-02-07T03:38:13.344Z,98779
2018-02-07T03:40:17.521Z,98776
2018-02-07T03:42:22.193Z,98772
2018-02-07T03:44:26.729Z,98771
2018-02-07T03:46:30.869Z,98771
2018-02-07T03:48:35.314Z,98769
2018-02-07T03:50:39.405Z,98769
2018-02-07T03:52:43.536Z,98772
2018-02-07T03:54:47.847Z,98771
2018-02-07T03:56:52.165Z,98773
2018-02-07T03:58:56.552Z,98775
2018-02-07T04:01:00.653Z,98779
2018-02-07T04:03:04.798Z,98775
2018-02-07T04:05:08.945Z,98783
2018-02-07T04:07:13.158Z,98784
2018-02-07T04:09:17.210Z,98780
2018-02-07T04:11:21.281Z,98783
2018-02-07T04:13:25.588Z,98788
2018-02-07T04:15:29.675Z,98787
2018-02-07T04:17:33.428Z,98790
2018-02-07T04:19:37.960Z,98783
2018-02-07T04:21:42.185Z,98785
2018-02-07T04:23:46.729Z,98787
2018-02-07T04:25:51.005Z,98789
2018-02-07T04:27:55.156Z,98790
2018-02-07T04:30:04.376Z,98793
2018-02-07T04:32:08.111Z,98793
2018-02-07T04:34:12.356Z,98795
2018-02-07T04:36:17.538Z,98795
2018-02-07T04:38:21.320Z,98792
2018-02-07T04:40:25.116Z,98787
2018-02-07T04:42:29.078Z,98789
2018-02-07T04:44:33.740Z,98793
2018-02-07T04:46:37.767Z,98796
2018-02-07T04:48:41.844Z,98794
2018-02-07T04:50:45.915Z,98793
2018-02-07T04:52:50.281Z,98794
2018-02-07T04:54:54.453Z,98801
2018-02-07T04:56:58.660Z,98797
2018-02-07T04:59:02.761Z,98801
2018-02-07T05:01:07.202Z,98788
2018-02-07T05:03:11.550Z,98794
2018-02-07T05:05:15.912Z,98788
2018-02-07T05:07:20.306Z,98792
2018-02-07T05:09:24.410Z,98792
2018-02-07T05:11:28.218Z,98789
2018-02-07T05:13:32.085Z,98791
2018-02-07T05:15:36.448Z,98794
2018-02-07T05:17:40.674Z,98791
2018-02-07T05:19:44.902Z,98786
2018-02-07T05:21:48.733Z,98794
2018-02-07T05:23:53.621Z,98797
2018-02-07T05:25:57.524Z,98803
2018-02-07T05:28:01.328Z,98805
2018-02-07T05:30:05.428Z,98803
2018-02-07T05:32:10.130Z,98809
2018-02-07T05:34:14.196Z,98808
2018-02-07T05:36:18.601Z,98813
2018-02-07T05:38:22.905Z,98811
2018-02-07T05:40:27.094Z,98812
2018-02-07T05:42:31.357Z,98814
2018-02-07T05:44:35.517Z,98811
2018-02-07T05:46:39.953Z,98818
2018-02-07T05:48:43.708Z,98813
2018-02-07T05:50:47.489Z,98819
2018-02-07T05:53:01.946Z,98809
2018-02-07T05:55:06.313Z,98812
2018-02-07T05:57:10.446Z,98811
2018-02-07T05:59:22.921Z,98812
2018-02-07T06:01:26.977Z,98814
2018-02-07T06:03:31.117Z,98816
2018-02-07T06:05:35.272Z,98818
2018-02-07T06:07:39.821Z,98819
2018-02-07T06:09:43.767Z,98817
2018-02-07T06:11:47.756Z,98821
2018-02-07T06:13:52.093Z,98820
2018-02-07T06:15:56.340Z,98820
2018-02-07T06:18:00.397Z,98820
2018-02-07T06:20:04.361Z,98822
2018-02-07T06:22:08.800Z,98823
2018-02-07T06:24:12.886Z,98826
2018-02-07T06:26:16.766Z,98832
2018-02-07T06:28:20.711Z,98831
2018-02-07T06:30:25.174Z,98832
2018-02-07T06:32:29.248Z,98835
2018-02-07T06:34:33.437Z,98835
2018-02-07T06:36:37.590Z,98833
2018-02-07T06:38:42.090Z,98841
2018-02-07T06:40:46.336Z,98844
2018-02-07T06:42:50.242Z,98842
2018-02-07T06:44:54.626Z,98847
2018-02-07T06:46:58.739Z,98850
2018-02-07T06:49:03.020Z,98854
2018-02-07T06:51:07.645Z,98856
2018-02-07T06:53:12.034Z,98856
2018-02-07T06:55:16.001Z,98857
2018-02-07T06:57:19.793Z,98858
2018-02-07T06:59:23.833Z,98856
2018-02-07T07:01:27.590Z,98855
2018-02-07T07:03:31.365Z,98851
2018-02-07T07:05:35.453Z,98858
2018-02-07T07:07:39.241Z,98852
2018-02-07T07:09:53.866Z,98853
2018-02-07T07:11:57.990Z,98853
2018-02-07T07:14:01.983Z,98859
2018-02-07T07:16:06.078Z,98862
2018-02-07T07:18:10.290Z,98865
2018-02-07T07:20:14.051Z,98863
2018-02-07T07:22:17.939Z,98866
2018-02-07T07:24:21.708Z,98865
2018-02-07T07:26:25.786Z,98869
2018-02-07T07:28:29.546Z,98876
2018-02-07T07:30:33.362Z,98879
2018-02-07T07:32:37.551Z,98880
2018-02-07T07:34:41.323Z,98879
2018-02-07T07:36:45.124Z,98875
2018-02-07T07:38:48.931Z,98875
2018-02-07T07:40:53.197Z,98874
2018-02-07T07:42:57.020Z,98871
2018-02-07T07:45:00.793Z,98874
2018-02-07T15:18:41.128Z,98940
2018-02-07T15:20:46.441Z,98943
2018-02-07T15:22:51.745Z,98946
2018-02-07T15:24:57.507Z,98954
2018-02-07T15:27:03.551Z,98958
2018-02-07T15:29:08.752Z,98955
2018-02-07T15:31:14.326Z,98957
2018-02-07T15:33:19.566Z,98958
2018-02-07T15:35:24.941Z,98957
2018-02-07T15:37:30.567Z,98962
2018-02-07T15:39:35.863Z,98960
2018-02-07T15:41:41.169Z,98963
2018-02-07T15:43:47.381Z,98969
2018-02-07T15:45:52.672Z,98975
2018-02-07T15:47:58.048Z,98973
2018-02-07T15:50:03.711Z,98973
2018-02-07T15:52:08.963Z,98978
2018-02-07T15:54:14.232Z,98981
2018-02-07T15:56:19.821Z,98981
2018-02-07T15:58:25.163Z,98982
2018-02-07T16:00:30.496Z,98983
2018-02-07T16:02:36.103Z,98987
2018-02-07T16:04:41.420Z,98988
2018-02-07T16:06:46.655Z,98987
2018-02-07T16:08:52.269Z,98984
2018-02-07T16:10:57.668Z,98987
2018-02-07T16:13:03.379Z,98982
2018-02-07T16:15:09.116Z,98987
2018-02-07T16:17:14.449Z,98991
2018-02-07T16:19:19.828Z,98990
2018-02-07T16:21:25.424Z,98995
2018-02-07T16:23:30.818Z,98996
2018-02-07T16:25:36.417Z,98995
2018-02-07T16:27:42.054Z,98997
2018-02-07T16:29:47.575Z,99000
2018-02-07T16:31:52.967Z,98999
2018-02-07T16:33:59.160Z,98999
2018-02-07T16:36:04.672Z,99002
2018-02-07T16:38:10.296Z,99005
2018-02-07T16:40:15.892Z,99010
2018-02-07T16:42:21.157Z,99017
2018-02-07T16:44:26.765Z,99020
2018-02-07T16:46:33.259Z,99023
2018-02-07T16:48:38.741Z,99025
2018-02-07T16:50:44.099Z,99027
2018-02-07T16:52:50.599Z,99032
2018-02-07T16:54:56.142Z,99035
2018-02-07T16:57:02.438Z,99032
2018-02-07T16:59:09.543Z,99041
2018-02-07T17:01:15.278Z,99044
2018-02-07T17:03:21.885Z,99046
2018-02-07T17:05:28.582Z,99046
2018-02-07T17:07:33.932Z,99041
2018-02-07T17:09:39.449Z,99047
2018-02-07T17:11:44.944Z,99037
2018-02-07T17:15:14.144Z,99051
2018-02-07T17:17:19.855Z,99052
2018-02-07T17:19:25.295Z,99052
2018-02-07T17:21:30.790Z,99064
2018-02-07T17:23:36.981Z,99067
2018-02-07T17:25:42.304Z,99071
2018-02-07T17:27:47.620Z,99074
2018-02-07T17:29:53.263Z,99073
2018-02-07T17:31:58.529Z,99073
2018-02-07T17:34:03.867Z,99073
2018-02-07T17:36:09.450Z,99075
2018-02-07T17:38:16.355Z,99076
2018-02-07T17:40:21.887Z,99075
2018-02-07T17:42:27.970Z,99071
2018-02-07T17:44:33.331Z,99081
2018-02-07T17:46:39.320Z,99081
2018-02-07T17:48:45.062Z,99082
2018-02-07T17:50:50.348Z,99090
2018-02-07T17:52:56.026Z,99094
2018-02-07T17:55:01.730Z,99094
2018-02-07T17:57:07.040Z,99090
2018-02-07T17:59:14.252Z,99097
2018-02-07T18:01:23.738Z,99096
2018-02-07T18:03:32.943Z,99101
2018-02-07T18:05:39.630Z,99102
2018-02-07T18:07:45.367Z,99098
2018-02-07T18:09:51.371Z,99102
2018-02-07T18:11:56.906Z,99106
2018-02-07T18:14:07.125Z,99107
2018-02-07T18:16:12.691Z,99103
2018-02-07T18:18:17.987Z,99110
2018-02-07T18:20:23.669Z,99108
2018-02-07T18:22:29.453Z,99113
2018-02-07T18:24:35.348Z,99110
2018-02-07T18:26:41.624Z,99111
2018-02-07T18:28:48.738Z,99118
2018-02-07T18:30:55.656Z,99121
2018-02-07T18:33:02.825Z,99117
2018-02-07T18:35:11.137Z,99122
2018-02-07T18:37:16.660Z,99129
2018-02-07T18:39:22.394Z,99129
2018-02-07T18:41:34.223Z,99123
2018-02-07T18:43:41.624Z,99125
2018-02-07T18:45:47.933Z,99135
2018-02-07T18:47:54.379Z,99137
2018-02-07T18:50:00.064Z,99135
2018-02-07T18:52:06.534Z,99133
2018-02-07T18:54:11.966Z,99133
2018-02-07T18:56:17.428Z,99135
2018-02-07T18:58:24.356Z,99135
2018-02-07T19:00:31.103Z,99132
2018-02-07T19:02:37.318Z,99127
2018-02-07T19:04:43.212Z,99128
2018-02-07T19:06:51.046Z,99129
2018-02-07T19:08:58.395Z,99132
2018-02-07T19:11:04.569Z,99130
2018-02-07T19:13:11.649Z,99129
2018-02-07T19:15:17.476Z,99128
2018-02-07T19:17:23.874Z,99132
2018-02-07T19:19:29.297Z,99139
2018-02-07T19:21:34.776Z,99141
2018-02-07T19:23:42.454Z,99146
2018-02-07T19:25:47.965Z,99144
2018-02-07T19:27:53.479Z,99145
2018-02-07T19:29:59.490Z,99146
2018-02-07T19:32:04.929Z,99147
2018-02-07T19:34:10.270Z,99147
2018-02-07T19:36:15.908Z,99150
2018-02-07T19:38:21.265Z,99155
2018-02-07T19:40:27.325Z,99151
2018-02-07T19:42:33.573Z,99153
2018-02-07T19:44:41.619Z,99152
2018-02-07T19:59:02.411Z,99155
2018-02-07T20:01:08.430Z,99160
2018-02-07T20:03:13.796Z,99158
2018-02-07T20:05:19.430Z,99164
2018-02-07T20:07:27.752Z,99149
2018-02-07T20:09:33.732Z,99161
2018-02-07T20:11:39.502Z,99165
2018-02-07T20:13:44.889Z,99167
2018-02-07T20:15:50.292Z,99172
2018-02-07T20:17:56.048Z,99178
2018-02-07T20:20:04.074Z,99173
2018-02-07T20:22:10.205Z,99179
2018-02-07T20:24:16.212Z,99171
2018-02-07T20:26:21.668Z,99177
2018-02-07T20:28:26.998Z,99179
2018-02-07T20:30:32.598Z,99175
2018-02-07T20:32:37.947Z,99172
2018-02-07T20:34:43.670Z,99175
2018-02-07T20:36:49.901Z,99180
2018-02-07T20:38:55.546Z,99174
2018-02-07T20:41:00.947Z,99173
2018-02-07T20:43:10.782Z,99165
2018-02-07T20:45:16.236Z,99163
2018-02-07T20:47:21.807Z,99179
2018-02-07T20:49:27.582Z,99173
2018-02-07T20:51:33.007Z,99166
2018-02-07T20:53:38.362Z,99171
2018-02-07T20:55:43.984Z,99171
2018-02-07T20:57:49.463Z,99168
2018-02-07T20:59:54.979Z,99167
2018-02-07T21:02:00.700Z,99166
2018-02-07T21:04:06.032Z,99177
2018-02-07T21:06:11.750Z,99174
2018-02-07T21:08:19.849Z,99178
2018-02-07T21:10:25.220Z,99177
2018-02-07T21:12:30.855Z,99183
2018-02-07T21:14:37.356Z,99180
2018-02-07T21:16:42.859Z,99185
2018-02-07T21:18:48.295Z,99184
2018-02-07T21:20:53.863Z,99188
2018-02-07T21:23:00.171Z,99192
2018-02-07T21:25:05.555Z,99195
2018-02-07T21:27:11.202Z,99192
2018-02-07T21:29:16.639Z,99195
2018-02-07T21:31:22.044Z,99198
2018-02-07T21:33:27.616Z,99200
2018-02-07T21:35:32.940Z,99189
2018-02-07T21:37:38.798Z,99199
2018-02-07T21:39:45.735Z,99186
2018-02-07T21:41:51.484Z,99200
2018-02-07T21:43:57.036Z,99203
2018-02-07T21:46:02.730Z,99203
2018-02-07T21:48:07.991Z,99200
2018-02-07T21:50:13.351Z,99203
2018-02-07T21:52:19.447Z,99203
2018-02-07T21:54:24.761Z,99204
2018-02-07T21:56:30.265Z,99207
2018-02-07T21:58:35.895Z,99202
2018-02-07T22:00:41.197Z,99201
2018-02-07T22:02:47.254Z,99200
2018-02-07T22:04:53.712Z,99201
2018-02-07T22:06:59.321Z,99199
2018-02-07T22:09:05.246Z,99201
2018-02-07T22:11:11.393Z,99200
2018-02-07T22:13:17.243Z,99199
2018-02-07T22:15:23.176Z,99202
2018-02-07T22:17:28.911Z,99202
2018-02-07T22:19:34.439Z,99199
2018-02-07T22:21:39.849Z,99207
2018-02-07T22:23:47.720Z,99201
2018-02-07T22:25:53.592Z,99208
2018-02-07T22:28:00.507Z,99211
2018-02-07T22:30:06.570Z,99208
2018-02-07T22:32:12.251Z,99208
2018-02-07T22:34:18.180Z,99208
2018-02-07T22:36:23.944Z,99204
2018-02-07T22:38:29.342Z,99211
2018-02-07T22:40:35.018Z,99206
2018-02-07T22:42:42.709Z,99211
2018-02-07T22:44:48.641Z,99218
2018-02-07T22:46:54.181Z,99211
2018-02-07T22:49:00.136Z,99216
2018-02-07T22:51:08.122Z,99217
2018-02-07T22:53:13.721Z,99217
2018-02-07T22:55:20.102Z,99213
2018-02-07T22:57:26.096Z,99210
2018-02-07T22:59:31.803Z,99211
2018-02-07T23:01:37.679Z,99217
2018-02-07T23:03:43.550Z,99220
2018-02-07T23:05:48.974Z,99218
2018-02-07T23:07:54.810Z,99219
2018-02-07T23:10:00.346Z,99221
2018-02-07T23:12:05.777Z,99220
2018-02-07T23:14:11.318Z,99224
2018-02-07T23:16:16.884Z,99225
2018-02-07T23:18:22.594Z,99228
2018-02-07T23:20:28.168Z,99233
2018-02-07T23:22:33.706Z,99234
2018-02-07T23:24:39.796Z,99229
2018-02-07T23:26:45.894Z,99230
2018-02-07T23:28:51.632Z,99228
2018-02-07T23:30:57.553Z,99231
2018-02-07T23:33:03.898Z,99236
2018-02-07T23:35:09.863Z,99242
2018-02-07T23:37:15.179Z,99238
2018-02-07T23:39:21.598Z,99238
2018-02-07T23:41:27.122Z,99236
2018-02-07T23:43:32.424Z,99239
2018-02-07T23:45:37.643Z,99232
2018-02-07T23:47:43.158Z,99234
2018-02-07T23:49:48.347Z,99232
2018-02-07T23:51:53.489Z,99231
2018-02-07T23:53:59.104Z,99230
2018-02-07T23:56:04.357Z,99229
2018-02-07T23:58:09.614Z,99232
